createdAt,value
2022-12-08T00:00:12.823Z,948.30
2022-12-08T00:01:12.826Z,948.31
2022-12-08T00:02:12.944Z,948.34
2022-12-08T00:03:12.965Z,948.28
2022-12-08T00:04:12.794Z,948.30
2022-12-08T00:05:12.756Z,948.24
2022-12-08T00:06:12.741Z,948.22
2022-12-08T00:07:12.744Z,948.22
2022-12-08T00:08:12.749Z,948.20
2022-12-08T00:09:12.729Z,948.18
2022-12-08T00:10:46.612Z,948.09
2022-12-08T00:11:12.674Z,948.09
2022-12-08T00:12:12.692Z,948.06
2022-12-08T00:13:12.652Z,948.07
2022-12-08T00:14:12.629Z,948.05
2022-12-08T00:15:12.622Z,948.04
2022-12-08T00:16:12.693Z,948.01
2022-12-08T00:17:12.623Z,947.99
2022-12-08T00:18:12.620Z,947.99
2022-12-08T00:19:12.598Z,947.96
2022-12-08T00:20:12.557Z,947.97
2022-12-08T00:21:12.550Z,947.99
2022-12-08T00:22:12.537Z,947.92
2022-12-08T00:23:12.527Z,947.93
2022-12-08T00:24:12.532Z,947.91
2022-12-08T00:25:12.490Z,947.92
2022-12-08T00:26:12.503Z,947.94
2022-12-08T00:27:12.466Z,947.91
2022-12-08T00:28:12.488Z,947.88
2022-12-08T00:29:17.130Z,947.86
2022-12-08T00:30:12.442Z,947.87
2022-12-08T00:31:12.431Z,947.89
2022-12-08T00:32:12.584Z,947.86
2022-12-08T00:33:12.418Z,947.87
2022-12-08T00:34:12.397Z,947.87
2022-12-08T00:35:12.382Z,947.84
2022-12-08T00:36:12.353Z,947.88
2022-12-08T00:37:12.340Z,947.85
2022-12-08T00:38:12.321Z,947.82
2022-12-08T00:39:12.315Z,947.87
2022-12-08T00:40:12.333Z,947.86
2022-12-08T00:41:12.298Z,947.88
2022-12-08T00:42:12.351Z,947.87
2022-12-08T00:43:12.260Z,947.85
2022-12-08T00:44:12.234Z,947.85
2022-12-08T00:45:12.255Z,947.86
2022-12-08T00:46:12.333Z,947.85
2022-12-08T00:47:12.217Z,947.90
2022-12-08T00:48:12.218Z,947.90
2022-12-08T00:49:12.188Z,947.88
2022-12-08T00:50:12.156Z,947.90
2022-12-08T00:51:12.154Z,947.90
2022-12-08T00:52:12.131Z,947.90
2022-12-08T00:53:12.157Z,947.89
2022-12-08T00:54:12.136Z,947.90
2022-12-08T00:55:12.096Z,947.90
2022-12-08T00:56:12.084Z,947.90
2022-12-08T00:57:12.083Z,947.91
2022-12-08T00:58:12.080Z,947.94
2022-12-08T00:59:12.050Z,947.90
2022-12-08T01:00:12.077Z,947.90
2022-12-08T01:01:12.115Z,947.92
2022-12-08T01:02:12.000Z,947.89
2022-12-08T01:03:12.094Z,947.90
2022-12-08T01:04:12.003Z,947.91
2022-12-08T01:05:11.986Z,947.94
2022-12-08T01:06:11.985Z,947.94
2022-12-08T01:07:11.957Z,948.00
2022-12-08T01:08:12.080Z,947.97
2022-12-08T01:09:11.949Z,947.98
2022-12-08T01:10:11.926Z,947.98
2022-12-08T01:11:11.898Z,947.97
2022-12-08T01:12:11.884Z,947.94
2022-12-08T01:13:11.875Z,947.98
2022-12-08T01:14:11.850Z,947.95
2022-12-08T01:15:11.869Z,947.98
2022-12-08T01:16:11.870Z,947.98
2022-12-08T01:17:11.917Z,947.98
2022-12-08T01:18:11.798Z,948.00
2022-12-08T01:19:11.933Z,948.00
2022-12-08T01:20:11.797Z,947.99
2022-12-08T01:21:11.761Z,948.01
2022-12-08T01:22:11.773Z,948.02
2022-12-08T01:23:11.740Z,947.98
2022-12-08T01:24:11.719Z,947.95
2022-12-08T01:25:11.741Z,947.95
2022-12-08T01:26:11.689Z,947.93
2022-12-08T01:27:11.719Z,947.92
2022-12-08T01:28:11.668Z,947.90
2022-12-08T01:29:11.674Z,947.91
2022-12-08T01:30:11.637Z,947.86
2022-12-08T01:31:11.713Z,947.88
2022-12-08T01:32:11.649Z,947.87
2022-12-08T01:33:11.619Z,947.87
2022-12-08T01:34:11.584Z,947.87
2022-12-08T01:35:11.597Z,947.82
2022-12-08T01:36:11.588Z,947.82
2022-12-08T01:37:11.605Z,947.81
2022-12-08T01:38:11.569Z,947.77
2022-12-08T01:39:11.534Z,947.76
2022-12-08T01:40:11.514Z,947.77
2022-12-08T01:41:11.510Z,947.77
2022-12-08T01:42:11.487Z,947.79
2022-12-08T01:43:11.508Z,947.78
2022-12-08T01:44:11.452Z,947.79
2022-12-08T01:45:11.454Z,947.82
2022-12-08T01:46:11.489Z,947.77
2022-12-08T01:47:11.428Z,947.75
2022-12-08T01:48:11.572Z,947.76
2022-12-08T01:49:11.438Z,947.76
2022-12-08T01:50:11.408Z,947.73
2022-12-08T01:51:11.386Z,947.76
2022-12-08T01:52:11.356Z,947.74
2022-12-08T01:53:11.351Z,947.76
2022-12-08T01:54:11.326Z,947.74
2022-12-08T01:55:11.342Z,947.75
2022-12-08T01:56:11.342Z,947.74
2022-12-08T01:57:11.294Z,947.75
2022-12-08T01:58:11.304Z,947.74
2022-12-08T01:59:11.272Z,947.70
2022-12-08T02:00:11.274Z,947.71
2022-12-08T02:01:11.358Z,947.70
2022-12-08T02:02:11.316Z,947.70
2022-12-08T02:03:11.221Z,947.66
2022-12-08T02:04:11.198Z,947.62
2022-12-08T02:05:11.219Z,947.63
2022-12-08T02:06:11.172Z,947.65
2022-12-08T02:07:11.174Z,947.61
2022-12-08T02:08:11.178Z,947.59
2022-12-08T02:09:11.236Z,947.59
2022-12-08T02:10:11.121Z,947.56
2022-12-08T02:11:11.152Z,947.56
2022-12-08T02:12:11.103Z,947.61
2022-12-08T02:13:11.098Z,947.61
2022-12-08T02:14:11.070Z,947.54
2022-12-08T02:15:11.103Z,947.55
2022-12-08T02:16:11.093Z,947.54
2022-12-08T02:17:11.041Z,947.50
2022-12-08T02:18:11.021Z,947.55
2022-12-08T02:19:32.300Z,947.55
2022-12-08T02:20:11.001Z,947.55
2022-12-08T02:21:10.981Z,947.56
2022-12-08T02:22:10.970Z,947.53
2022-12-08T02:23:10.970Z,947.51
2022-12-08T02:24:10.974Z,947.54
2022-12-08T02:25:10.935Z,947.50
2022-12-08T02:26:10.924Z,947.50
2022-12-08T02:27:10.908Z,947.46
2022-12-08T02:28:10.897Z,947.43
2022-12-08T02:29:10.900Z,947.45
2022-12-08T02:30:10.885Z,947.48
2022-12-08T02:31:10.921Z,947.45
2022-12-08T02:32:10.830Z,947.40
2022-12-08T02:33:10.847Z,947.39
2022-12-08T02:34:10.842Z,947.40
2022-12-08T02:35:10.836Z,947.38
2022-12-08T02:36:10.785Z,947.37
2022-12-08T02:37:10.774Z,947.37
2022-12-08T02:38:10.768Z,947.36
2022-12-08T02:39:10.760Z,947.43
2022-12-08T02:40:10.762Z,947.42
2022-12-08T02:41:10.722Z,947.41
2022-12-08T02:42:10.716Z,947.41
2022-12-08T02:43:10.702Z,947.44
2022-12-08T02:44:10.701Z,947.40
2022-12-08T02:45:10.702Z,947.48
2022-12-08T02:46:10.697Z,947.45
2022-12-08T02:47:10.646Z,947.42
2022-12-08T02:48:10.628Z,947.42
2022-12-08T02:49:10.633Z,947.39
2022-12-08T02:50:10.625Z,947.43
2022-12-08T02:51:10.598Z,947.39
2022-12-08T02:52:10.603Z,947.39
2022-12-08T02:53:39.642Z,947.37
2022-12-08T02:54:40.598Z,947.40
2022-12-08T02:55:40.600Z,947.36
2022-12-08T02:56:40.563Z,947.35
2022-12-08T02:57:40.588Z,947.36
2022-12-08T02:58:40.550Z,947.39
2022-12-08T02:59:40.533Z,947.36
2022-12-08T03:00:40.513Z,947.41
2022-12-08T03:01:40.573Z,947.41
2022-12-08T03:02:40.585Z,947.39
2022-12-08T03:03:40.520Z,947.38
2022-12-08T03:04:40.459Z,947.38
2022-12-08T03:05:40.509Z,947.37
2022-12-08T03:06:40.435Z,947.35
2022-12-08T03:07:40.510Z,947.30
2022-12-08T03:08:40.397Z,947.34
2022-12-08T03:09:40.436Z,947.27
2022-12-08T03:10:40.380Z,947.34
2022-12-08T03:11:40.385Z,947.32
2022-12-08T03:12:40.355Z,947.34
2022-12-08T03:13:40.356Z,947.29
2022-12-08T03:14:40.380Z,947.26
2022-12-08T03:15:40.421Z,947.31
2022-12-08T03:16:40.300Z,947.27
2022-12-08T03:17:40.297Z,947.24
2022-12-08T03:18:40.280Z,947.23
2022-12-08T03:19:40.273Z,947.24
2022-12-08T03:20:40.266Z,947.25
2022-12-08T03:21:40.247Z,947.23
2022-12-08T03:22:40.238Z,947.22
2022-12-08T03:23:40.228Z,947.21
2022-12-08T03:24:40.210Z,947.24
2022-12-08T03:25:40.215Z,947.20
2022-12-08T03:26:40.175Z,947.22
2022-12-08T03:27:40.179Z,947.19
2022-12-08T03:28:40.158Z,947.19
2022-12-08T03:29:40.168Z,947.15
2022-12-08T03:30:40.180Z,947.15
2022-12-08T03:31:40.257Z,947.11
2022-12-08T03:32:40.105Z,947.10
2022-12-08T03:33:40.133Z,947.13
2022-12-08T03:34:40.196Z,947.13
2022-12-08T03:35:40.070Z,947.13
2022-12-08T03:36:40.045Z,947.11
2022-12-08T03:37:40.038Z,947.08
2022-12-08T03:38:40.046Z,947.12
2022-12-08T03:39:40.012Z,947.06
2022-12-08T03:40:40.004Z,947.08
2022-12-08T03:41:39.985Z,947.06
2022-12-08T03:42:39.967Z,947.07
2022-12-08T03:43:39.953Z,947.01
2022-12-08T03:44:39.929Z,947.06
2022-12-08T03:45:39.953Z,947.00
2022-12-08T03:46:39.904Z,947.01
2022-12-08T03:47:39.946Z,947.00
2022-12-08T03:48:39.884Z,947.00
2022-12-08T03:49:39.899Z,947.00
2022-12-08T03:50:39.856Z,947.01
2022-12-08T03:51:39.847Z,946.97
2022-12-08T03:52:39.819Z,946.97
2022-12-08T03:53:39.852Z,946.94
2022-12-08T03:54:39.799Z,946.91
2022-12-08T03:55:39.802Z,946.89
2022-12-08T03:56:39.798Z,946.91
2022-12-08T03:57:39.801Z,946.86
2022-12-08T03:58:39.741Z,946.93
2022-12-08T03:59:39.746Z,946.92
2022-12-08T04:00:39.721Z,946.95
2022-12-08T04:01:39.804Z,946.93
2022-12-08T04:02:39.728Z,946.90
2022-12-08T04:03:39.697Z,946.92
2022-12-08T04:04:39.673Z,946.94
2022-12-08T04:05:39.705Z,946.93
2022-12-08T04:06:39.666Z,946.92
2022-12-08T04:07:39.724Z,946.89
2022-12-08T04:08:39.608Z,946.92
2022-12-08T04:09:39.742Z,946.95
2022-12-08T04:10:39.594Z,946.93
2022-12-08T04:11:39.578Z,946.94
2022-12-08T04:12:39.560Z,946.90
2022-12-08T04:13:39.562Z,946.93
2022-12-08T04:14:39.566Z,946.88
2022-12-08T04:15:39.550Z,946.91
2022-12-08T04:16:39.511Z,946.88
2022-12-08T04:17:39.520Z,946.87
2022-12-08T04:18:39.507Z,946.91
2022-12-08T04:19:39.482Z,946.89
2022-12-08T04:20:39.449Z,946.89
2022-12-08T04:21:39.451Z,946.89
2022-12-08T04:22:39.429Z,946.89
2022-12-08T04:23:39.455Z,946.92
2022-12-08T04:24:39.403Z,946.90
2022-12-08T04:25:39.398Z,946.88
2022-12-08T04:26:39.372Z,946.88
2022-12-08T04:27:39.400Z,946.91
2022-12-08T04:28:39.353Z,946.86
2022-12-08T04:29:39.348Z,946.86
2022-12-08T04:30:39.349Z,946.89
2022-12-08T04:31:39.359Z,946.85
2022-12-08T04:32:44.235Z,946.84
2022-12-08T04:33:39.295Z,946.87
2022-12-08T04:34:39.293Z,946.84
2022-12-08T04:35:39.269Z,946.83
2022-12-08T04:36:39.263Z,946.84
2022-12-08T04:37:39.240Z,946.85
2022-12-08T04:38:39.235Z,946.86
2022-12-08T04:39:39.211Z,946.86
2022-12-08T04:40:39.220Z,946.83
2022-12-08T04:41:39.190Z,946.81
2022-12-08T04:42:39.163Z,946.85
2022-12-08T04:43:39.171Z,946.85
2022-12-08T04:44:39.167Z,946.80
2022-12-08T04:45:39.198Z,946.79
2022-12-08T04:46:43.428Z,946.80
2022-12-08T04:47:39.136Z,946.81
2022-12-08T04:48:39.091Z,946.82
2022-12-08T04:49:39.085Z,946.79
2022-12-08T04:50:39.079Z,946.79
2022-12-08T04:51:39.058Z,946.79
2022-12-08T04:52:39.050Z,946.79
2022-12-08T04:53:44.890Z,946.75
2022-12-08T04:54:39.015Z,946.77
2022-12-08T04:55:39.062Z,946.78
2022-12-08T04:56:38.976Z,946.79
2022-12-08T04:57:39.016Z,946.83
2022-12-08T04:58:38.951Z,946.81
2022-12-08T04:59:38.948Z,946.78
2022-12-08T05:00:38.931Z,946.81
2022-12-08T05:01:39.172Z,946.80
2022-12-08T05:02:38.977Z,946.78
2022-12-08T05:03:38.902Z,946.75
2022-12-08T05:04:38.874Z,946.74
2022-12-08T05:05:38.867Z,946.80
2022-12-08T05:06:38.854Z,946.79
2022-12-08T05:07:38.911Z,946.77
2022-12-08T05:08:38.846Z,946.77
2022-12-08T05:09:38.818Z,946.77
2022-12-08T05:10:38.800Z,946.75
2022-12-08T05:11:39.553Z,946.76
2022-12-08T05:12:38.773Z,946.77
2022-12-08T05:13:38.758Z,946.77
2022-12-08T05:14:38.769Z,946.76
2022-12-08T05:15:38.744Z,946.78
2022-12-08T05:16:38.772Z,946.81
2022-12-08T05:17:38.713Z,946.79
2022-12-08T05:18:38.689Z,946.78
2022-12-08T05:19:38.714Z,946.79
2022-12-08T05:20:38.673Z,946.79
2022-12-08T05:21:38.685Z,946.73
2022-12-08T05:22:38.648Z,946.74
2022-12-08T05:23:38.635Z,946.69
2022-12-08T05:24:42.529Z,946.74
2022-12-08T05:25:38.634Z,946.74
2022-12-08T05:26:38.614Z,946.70
2022-12-08T05:27:38.604Z,946.72
2022-12-08T05:28:42.005Z,946.77
2022-12-08T05:29:38.551Z,946.74
2022-12-08T05:30:38.537Z,946.72
2022-12-08T05:31:38.606Z,946.68
2022-12-08T05:32:38.522Z,946.66
2022-12-08T05:33:38.491Z,946.67
2022-12-08T05:34:38.486Z,946.64
2022-12-08T05:35:38.481Z,946.65
2022-12-08T05:36:38.480Z,946.64
2022-12-08T05:37:38.446Z,946.61
2022-12-08T05:38:38.430Z,946.60
2022-12-08T05:39:38.419Z,946.65
2022-12-08T05:40:38.395Z,946.58
2022-12-08T05:41:38.427Z,946.59
2022-12-08T05:42:38.378Z,946.60
2022-12-08T05:43:38.381Z,946.60
2022-12-08T05:44:38.353Z,946.60
2022-12-08T05:45:38.405Z,946.57
2022-12-08T05:46:38.318Z,946.64
2022-12-08T05:47:38.325Z,946.60
2022-12-08T05:48:38.300Z,946.59
2022-12-08T05:49:38.290Z,946.60
2022-12-08T05:50:38.343Z,946.63
2022-12-08T05:51:38.280Z,946.62
2022-12-08T05:52:38.237Z,946.57
2022-12-08T05:53:38.274Z,946.64
2022-12-08T05:54:38.212Z,946.59
2022-12-08T05:55:38.213Z,946.59
2022-12-08T05:56:38.219Z,946.59
2022-12-08T05:57:38.199Z,946.60
2022-12-08T05:58:38.160Z,946.56
2022-12-08T05:59:38.181Z,946.56
2022-12-08T06:00:38.195Z,946.57
2022-12-08T06:01:38.224Z,946.55
2022-12-08T06:02:38.239Z,946.56
2022-12-08T06:03:38.168Z,946.57
2022-12-08T06:04:38.092Z,946.51
2022-12-08T06:05:38.065Z,946.55
2022-12-08T06:06:38.091Z,946.51
2022-12-08T06:07:38.151Z,946.54
2022-12-08T06:08:38.107Z,946.53
2022-12-08T06:09:38.020Z,946.52
2022-12-08T06:10:38.028Z,946.53
2022-12-08T06:11:38.021Z,946.48
2022-12-08T06:12:38.002Z,946.53
2022-12-08T06:13:37.969Z,946.52
2022-12-08T06:14:37.954Z,946.53
2022-12-08T06:15:37.982Z,946.52
2022-12-08T06:16:38.006Z,946.54
2022-12-08T06:17:37.919Z,946.53
2022-12-08T06:18:37.917Z,946.54
2022-12-08T06:19:37.901Z,946.55
2022-12-08T06:20:37.920Z,946.57
2022-12-08T06:21:37.865Z,946.52
2022-12-08T06:22:37.852Z,946.51
2022-12-08T06:23:37.827Z,946.51
2022-12-08T06:24:37.855Z,946.50
2022-12-08T06:25:37.816Z,946.52
2022-12-08T06:26:37.866Z,946.51
2022-12-08T06:27:37.801Z,946.53
2022-12-08T06:28:37.821Z,946.50
2022-12-08T06:29:37.758Z,946.52
2022-12-08T06:30:37.748Z,946.50
2022-12-08T06:31:37.786Z,946.51
2022-12-08T06:32:37.762Z,946.54
2022-12-08T06:33:37.787Z,946.56
2022-12-08T06:34:37.734Z,946.55
2022-12-08T06:35:37.673Z,946.50
2022-12-08T06:36:37.678Z,946.55
2022-12-08T06:37:37.658Z,946.54
2022-12-08T06:38:42.938Z,946.53
2022-12-08T06:39:37.648Z,946.54
2022-12-08T06:40:37.619Z,946.51
2022-12-08T06:41:37.596Z,946.52
2022-12-08T06:42:37.601Z,946.53
2022-12-08T06:43:37.592Z,946.50
2022-12-08T06:44:37.579Z,946.56
2022-12-08T06:45:37.608Z,946.52
2022-12-08T06:46:37.534Z,946.46
2022-12-08T06:47:37.545Z,946.51
2022-12-08T06:48:37.525Z,946.47
2022-12-08T06:49:37.499Z,946.47
2022-12-08T06:50:37.513Z,946.46
2022-12-08T06:51:37.474Z,946.49
2022-12-08T06:52:45.605Z,946.49
2022-12-08T06:53:37.448Z,946.46
2022-12-08T06:54:37.444Z,946.48
2022-12-08T06:56:37.414Z,946.48
2022-12-08T06:57:37.391Z,946.51
2022-12-08T06:58:37.384Z,946.50
2022-12-08T06:59:37.358Z,946.51
2022-12-08T07:00:37.397Z,946.54
2022-12-08T07:01:37.455Z,946.55
2022-12-08T07:02:37.413Z,946.53
2022-12-08T07:03:37.311Z,946.52
2022-12-08T07:04:37.344Z,946.52
2022-12-08T07:05:37.275Z,946.52
2022-12-08T07:06:37.295Z,946.52
2022-12-08T07:07:37.338Z,946.52
2022-12-08T07:08:37.254Z,946.51
2022-12-08T07:09:37.256Z,946.51
2022-12-08T07:10:37.246Z,946.51
2022-12-08T07:11:37.213Z,946.53
2022-12-08T07:12:37.230Z,946.53
2022-12-08T07:13:37.173Z,946.53
2022-12-08T07:14:37.169Z,946.54
2022-12-08T07:15:37.150Z,946.52
2022-12-08T07:16:37.255Z,946.49
2022-12-08T07:17:37.129Z,946.52
2022-12-08T07:18:37.138Z,946.56
2022-12-08T07:19:37.097Z,946.54
2022-12-08T07:20:37.159Z,946.53
2022-12-08T07:21:37.087Z,946.52
2022-12-08T07:22:37.067Z,946.54
2022-12-08T07:23:37.089Z,946.52
2022-12-08T07:24:37.067Z,946.54
2022-12-08T07:25:37.027Z,946.52
2022-12-08T07:26:37.125Z,946.56
2022-12-08T07:27:37.011Z,946.49
2022-12-08T07:28:36.986Z,946.52
2022-12-08T07:29:36.969Z,946.51
2022-12-08T07:30:37.048Z,946.50
2022-12-08T07:31:36.974Z,946.45
2022-12-08T07:32:36.965Z,946.49
2022-12-08T07:33:36.914Z,946.48
2022-12-08T07:34:36.949Z,946.48
2022-12-08T07:35:36.881Z,946.46
2022-12-08T07:36:36.897Z,946.45
2022-12-08T07:37:36.861Z,946.46
2022-12-08T07:38:36.883Z,946.43
2022-12-08T07:39:36.847Z,946.45
2022-12-08T07:40:36.857Z,946.42
2022-12-08T07:41:36.809Z,946.43
2022-12-08T07:42:36.808Z,946.41
2022-12-08T07:43:36.805Z,946.47
2022-12-08T07:44:36.775Z,946.46
2022-12-08T07:45:36.761Z,946.44
2022-12-08T07:46:36.785Z,946.50
2022-12-08T07:47:36.726Z,946.50
2022-12-08T07:48:36.739Z,946.51
2022-12-08T07:49:36.754Z,946.50
2022-12-08T07:50:36.716Z,946.45
2022-12-08T07:51:36.708Z,946.45
2022-12-08T07:52:36.685Z,946.44
2022-12-08T07:53:36.693Z,946.46
2022-12-08T07:54:36.638Z,946.49
2022-12-08T07:55:36.649Z,946.47
2022-12-08T07:56:36.624Z,946.53
2022-12-08T07:57:36.620Z,946.50
2022-12-08T07:58:36.629Z,946.49
2022-12-08T07:59:36.569Z,946.51
2022-12-08T08:00:36.610Z,946.48
2022-12-08T08:01:36.729Z,946.52
2022-12-08T08:02:36.766Z,946.45
2022-12-08T08:03:36.530Z,946.45
2022-12-08T08:04:36.565Z,946.45
2022-12-08T08:05:36.518Z,946.45
2022-12-08T08:06:36.509Z,946.42
2022-12-08T08:07:36.486Z,946.44
2022-12-08T08:08:36.457Z,946.45
2022-12-08T08:09:36.461Z,946.39
2022-12-08T08:10:36.424Z,946.44
2022-12-08T08:11:36.437Z,946.36
2022-12-08T08:12:36.406Z,946.37
2022-12-08T08:13:36.390Z,946.41
2022-12-08T08:14:36.408Z,946.36
2022-12-08T08:15:36.567Z,946.40
2022-12-08T08:16:38.546Z,946.39
2022-12-08T08:17:36.596Z,946.42
2022-12-08T08:18:36.332Z,946.40
2022-12-08T08:19:36.327Z,946.40
2022-12-08T08:20:36.310Z,946.40
2022-12-08T08:21:45.409Z,946.45
2022-12-08T08:22:36.284Z,946.43
2022-12-08T08:23:36.240Z,946.44
2022-12-08T08:24:40.279Z,946.45
2022-12-08T08:25:36.232Z,946.45
2022-12-08T08:26:36.248Z,946.47
2022-12-08T08:27:36.207Z,946.45
2022-12-08T08:28:36.223Z,946.45
2022-12-08T08:29:36.173Z,946.42
2022-12-08T08:30:36.169Z,946.38
2022-12-08T08:31:36.308Z,946.42
2022-12-08T08:32:36.190Z,946.41
2022-12-08T08:33:36.128Z,946.44
2022-12-08T08:34:36.118Z,946.41
2022-12-08T08:35:36.086Z,946.40
2022-12-08T08:36:36.110Z,946.42
2022-12-08T08:37:36.107Z,946.41
2022-12-08T08:38:36.094Z,946.38
2022-12-08T08:39:36.054Z,946.39
2022-12-08T08:40:36.036Z,946.41
2022-12-08T08:41:36.041Z,946.39
2022-12-08T08:42:36.050Z,946.41
2022-12-08T08:43:38.409Z,946.38
2022-12-08T08:44:36.013Z,946.36
2022-12-08T08:45:35.961Z,946.36
2022-12-08T08:46:36.065Z,946.36
2022-12-08T08:47:35.953Z,946.34
2022-12-08T08:48:35.934Z,946.36
2022-12-08T08:49:35.931Z,946.33
2022-12-08T08:50:37.774Z,946.36
2022-12-08T08:51:35.890Z,946.39
2022-12-08T08:52:35.891Z,946.36
2022-12-08T08:53:35.852Z,946.32
2022-12-08T08:54:35.867Z,946.34
2022-12-08T08:55:35.836Z,946.31
2022-12-08T08:56:35.817Z,946.30
2022-12-08T08:57:35.796Z,946.28
2022-12-08T08:58:35.800Z,946.26
2022-12-08T08:59:35.806Z,946.26
2022-12-08T09:00:35.768Z,946.28
2022-12-08T09:01:35.796Z,946.25
2022-12-08T09:02:35.750Z,946.26
2022-12-08T09:03:35.724Z,946.19
2022-12-08T09:04:35.846Z,946.22
2022-12-08T09:05:35.725Z,946.21
2022-12-08T09:06:35.739Z,946.18
2022-12-08T09:07:35.688Z,946.14
2022-12-08T09:08:35.675Z,946.11
2022-12-08T09:09:35.678Z,946.14
2022-12-08T09:10:35.641Z,946.13
2022-12-08T09:11:35.617Z,946.09
2022-12-08T09:12:35.602Z,946.07
2022-12-08T09:13:35.586Z,946.07
2022-12-08T09:14:35.617Z,946.06
2022-12-08T09:15:35.640Z,946.07
2022-12-08T09:16:41.794Z,946.08
2022-12-08T09:17:35.534Z,946.05
2022-12-08T09:18:35.577Z,946.07
2022-12-08T09:19:35.507Z,946.08
2022-12-08T09:20:35.520Z,946.11
2022-12-08T09:21:35.477Z,946.05
2022-12-08T09:22:35.479Z,946.09
2022-12-08T09:23:35.937Z,946.04
2022-12-08T09:24:35.524Z,946.03
2022-12-08T09:25:35.418Z,946.03
2022-12-08T09:26:35.423Z,946.01
2022-12-08T09:27:35.397Z,946.00
2022-12-08T09:28:35.401Z,946.01
2022-12-08T09:29:36.427Z,946.04
2022-12-08T09:30:35.379Z,945.97
2022-12-08T09:31:35.435Z,945.97
2022-12-08T09:32:35.358Z,945.98
2022-12-08T09:33:35.313Z,945.97
2022-12-08T09:34:35.340Z,945.94
2022-12-08T09:35:35.313Z,945.96
2022-12-08T09:36:35.277Z,945.89
2022-12-08T09:37:35.284Z,945.89
2022-12-08T09:38:35.311Z,945.85
2022-12-08T09:39:35.233Z,945.88
2022-12-08T09:40:35.276Z,945.88
2022-12-08T09:41:40.257Z,945.80
2022-12-08T09:42:35.213Z,945.81
2022-12-08T09:43:35.185Z,945.83
2022-12-08T09:44:35.197Z,945.83
2022-12-08T09:45:35.159Z,945.85
2022-12-08T09:46:35.227Z,945.82
2022-12-08T09:47:36.306Z,945.81
2022-12-08T09:48:35.127Z,945.79
2022-12-08T09:49:35.101Z,945.81
2022-12-08T09:50:35.093Z,945.80
2022-12-08T09:51:35.103Z,945.81
2022-12-08T09:52:35.074Z,945.77
2022-12-08T09:53:35.882Z,945.79
2022-12-08T09:54:35.026Z,945.74
2022-12-08T09:55:35.048Z,945.70
2022-12-08T09:56:35.039Z,945.69
2022-12-08T09:57:34.991Z,945.70
2022-12-08T09:58:34.976Z,945.69
2022-12-08T09:59:34.968Z,945.70
2022-12-08T10:00:34.992Z,945.69
2022-12-08T10:01:35.129Z,945.69
2022-12-08T10:02:34.931Z,945.66
2022-12-08T10:03:34.907Z,945.63
2022-12-08T10:04:35.012Z,945.61
2022-12-08T10:05:34.941Z,945.56
2022-12-08T10:06:34.900Z,945.52
2022-12-08T10:07:34.904Z,945.54
2022-12-08T10:08:34.896Z,945.50
2022-12-08T10:09:34.834Z,945.50
2022-12-08T10:10:34.809Z,945.43
2022-12-08T10:11:34.847Z,945.43
2022-12-08T10:12:34.793Z,945.49
2022-12-08T10:13:34.780Z,945.48
2022-12-08T10:14:34.748Z,945.42
2022-12-08T10:15:34.787Z,945.42
2022-12-08T10:16:34.777Z,945.41
2022-12-08T10:17:34.738Z,945.40
2022-12-08T10:18:34.706Z,945.35
2022-12-08T10:19:34.711Z,945.28
2022-12-08T10:20:34.679Z,945.30
2022-12-08T10:21:34.695Z,945.31
2022-12-08T10:22:36.700Z,945.26
2022-12-08T10:23:34.650Z,945.24
2022-12-08T10:24:34.622Z,945.23
2022-12-08T10:25:34.648Z,945.20
2022-12-08T10:26:34.617Z,945.21
2022-12-08T10:27:34.582Z,945.22
2022-12-08T10:28:36.703Z,945.21
2022-12-08T10:29:34.573Z,945.19
2022-12-08T10:30:34.532Z,945.20
2022-12-08T10:31:34.705Z,945.18
2022-12-08T10:32:34.545Z,945.15
2022-12-08T10:33:34.546Z,945.21
2022-12-08T10:34:34.487Z,945.16
2022-12-08T10:35:34.491Z,945.17
2022-12-08T10:36:34.448Z,945.15
2022-12-08T10:37:34.443Z,945.15
2022-12-08T10:38:34.461Z,945.10
2022-12-08T10:39:34.421Z,945.07
2022-12-08T10:40:34.892Z,945.05
2022-12-08T10:41:34.405Z,945.04
2022-12-08T10:42:34.397Z,945.03
2022-12-08T10:43:34.403Z,945.02
2022-12-08T10:44:34.360Z,944.96
2022-12-08T10:45:34.355Z,944.93
2022-12-08T10:46:34.396Z,944.90
2022-12-08T10:47:34.344Z,944.91
2022-12-08T10:48:34.298Z,944.89
2022-12-08T10:49:34.288Z,944.90
2022-12-08T10:50:34.264Z,944.86
2022-12-08T10:51:34.273Z,944.88
2022-12-08T10:52:34.278Z,944.89
2022-12-08T10:53:34.245Z,944.90
2022-12-08T10:54:34.275Z,944.89
2022-12-08T10:55:34.225Z,944.91
2022-12-08T10:56:34.185Z,944.91
2022-12-08T10:57:34.211Z,944.89
2022-12-08T10:58:34.164Z,944.87
2022-12-08T10:59:34.176Z,944.87
2022-12-08T11:00:34.272Z,944.83
2022-12-08T11:01:34.326Z,944.80
2022-12-08T11:02:34.151Z,944.77
2022-12-08T11:03:34.100Z,944.73
2022-12-08T11:04:34.090Z,944.75
2022-12-08T11:05:34.065Z,944.72
2022-12-08T11:06:34.076Z,944.71
2022-12-08T11:07:34.047Z,944.69
2022-12-08T11:08:34.129Z,944.68
2022-12-08T11:09:34.050Z,944.67
2022-12-08T11:10:33.995Z,944.68
2022-12-08T11:11:34.004Z,944.67
2022-12-08T11:12:34.002Z,944.66
2022-12-08T11:13:33.960Z,944.65
2022-12-08T11:14:33.991Z,944.64
2022-12-08T11:15:33.950Z,944.59
2022-12-08T11:16:33.957Z,944.57
2022-12-08T11:17:33.909Z,944.59
2022-12-08T11:18:33.880Z,944.56
2022-12-08T11:19:33.880Z,944.58
2022-12-08T11:20:33.883Z,944.53
2022-12-08T11:21:33.843Z,944.52
2022-12-08T11:22:33.830Z,944.51
2022-12-08T11:23:33.834Z,944.52
2022-12-08T11:24:37.488Z,944.53
2022-12-08T11:25:33.831Z,944.49
2022-12-08T11:26:33.816Z,944.50
2022-12-08T11:27:33.800Z,944.49
2022-12-08T11:28:33.752Z,944.47
2022-12-08T11:29:33.743Z,944.49
2022-12-08T11:30:33.721Z,944.45
2022-12-08T11:31:33.761Z,944.44
2022-12-08T11:32:33.729Z,944.45
2022-12-08T11:33:33.686Z,944.44
2022-12-08T11:34:33.672Z,944.41
2022-12-08T11:35:33.724Z,944.41
2022-12-08T11:36:33.644Z,944.39
2022-12-08T11:37:35.108Z,944.39
2022-12-08T11:38:33.611Z,944.37
2022-12-08T11:39:33.629Z,944.36
2022-12-08T11:40:33.622Z,944.33
2022-12-08T11:41:33.579Z,944.34
2022-12-08T11:42:33.557Z,944.33
2022-12-08T11:43:33.542Z,944.33
2022-12-08T11:44:33.545Z,944.32
2022-12-08T11:45:33.622Z,944.32
2022-12-08T11:46:33.633Z,944.31
2022-12-08T11:47:33.500Z,944.34
2022-12-08T11:48:33.469Z,944.31
2022-12-08T11:49:33.472Z,944.28
2022-12-08T11:50:33.472Z,944.30
2022-12-08T11:51:33.469Z,944.27
2022-12-08T11:52:33.423Z,944.26
2022-12-08T11:53:33.425Z,944.24
2022-12-08T11:54:33.401Z,944.17
2022-12-08T11:55:37.187Z,944.18
2022-12-08T11:56:33.370Z,944.17
2022-12-08T11:57:33.441Z,944.12
2022-12-08T11:58:33.391Z,944.15
2022-12-08T11:59:33.327Z,944.08
2022-12-08T12:00:33.328Z,944.11
2022-12-08T12:01:34.732Z,944.02
2022-12-08T12:02:33.368Z,944.04
2022-12-08T12:03:33.402Z,944.02
2022-12-08T12:04:33.294Z,943.98
2022-12-08T12:06:03.351Z,943.96
2022-12-08T12:07:33.234Z,943.95
2022-12-08T12:08:33.254Z,943.94
2022-12-08T12:09:33.196Z,943.96
2022-12-08T12:10:33.173Z,943.96
2022-12-08T12:11:33.168Z,943.93
2022-12-08T12:12:39.279Z,943.90
2022-12-08T12:13:33.151Z,943.90
2022-12-08T12:14:33.115Z,943.92
2022-12-08T12:15:33.128Z,943.92
2022-12-08T12:16:33.139Z,943.92
2022-12-08T12:17:33.104Z,943.91
2022-12-08T12:18:33.071Z,943.91
2022-12-08T12:19:33.068Z,943.95
2022-12-08T12:20:33.037Z,943.95
2022-12-08T12:21:33.068Z,943.94
2022-12-08T12:22:33.012Z,943.98
2022-12-08T12:25:44.914Z,943.96
2022-12-08T12:25:49.486Z,943.99
2022-12-08T12:25:54.398Z,943.96
2022-12-08T12:26:54.397Z,943.94
2022-12-08T12:27:57.658Z,943.92
2022-12-08T12:28:54.341Z,943.94
2022-12-08T12:30:05.976Z,943.91
2022-12-08T12:30:54.371Z,943.86